Latest Coastal Weather Observations for Coolangatta (QLD)

IDN60701

Issued at 10:11 am EST Friday 14 August 2020 (issued every 10 minutes, with the page automatically refreshed every 10 minutes)

About coastal observations | Map of coastal stations | Coastal observations for NSW | Marine services | Other Formats
Station Details ID: 040717 Name: COOLANGATTA Lat: -28.17 Lon: 153.51 Height: 4.0 m
Data from the previous 72 hours. | See also: Recent months at Coolangatta (QLD)

Observations at Coolangatta are collected in the Queensland time zone, which does not include daylight savings during the summer period. Therefore 'Rain since 9am' totals and other values are based on the Queensland time zone.

Date/Time
EST
Wind Sea
Height
m
Swell Vis
km
Cloud Weather Temp
°C
Press
hPa
Rain since
9am
mm
Dir  Spd
kts
Gust
kts
Height
m
Period
s
Dir
14/10:00am N 4 5 - - - - 10 Cloudy - 20.4 1016.7 0.0
14/09:30am CALM 0 0 - - - - 10 Cloudy - 20.0 1017.0 0.0
14/09:29am CALM 0 0 - - - - 10 Cloudy - 20.0 1017.0 0.0
14/09:06am N 3 4 - - - - 10 Cloudy - 18.9 1017.0 0.0
14/09:00am N 3 4 - - - - 10 Cloudy - 18.9 1016.8 0.0
14/08:48am ENE 2 5 - - - - 5 Partly cloudy - 18.9 1016.8 0.0
14/08:36am SSE 1 4 - - - - 10 Partly cloudy - 18.5 1016.7 0.0
14/08:30am CALM 0 0 - - - - 10 Partly cloudy - 18.6 1016.8 0.0
14/08:00am CALM 0 0 - - - - 10 - - 16.9 1016.8 0.0
14/07:30am CALM 0 2 - - - - 10 - - 14.9 1016.5 0.0
14/07:00am SW 4 5 - - - - 10 - - 13.1 1016.3 0.0
14/06:30am WSW 3 4 - - - - 10 - - 12.3 1016.3 0.0
14/06:06am CALM 0 2 - - - - 10 - - 11.7 1016.2 0.0
14/06:00am WSW 2 3 - - - - 10 - - 11.9 1016.2 0.0
14/05:46am CALM 0 1 - - - - 5 - - 11.6 1016.2 0.0
14/05:30am WSW 1 3 - - - - 10 - - 12.6 1016.2 0.0
14/05:00am CALM 0 0 - - - - 10 - - 11.9 1015.8 0.0
14/04:30am CALM 0 3 - - - - 10 - - 12.6 1015.6 0.0
14/04:00am WSW 4 6 - - - - 10 - - 12.9 1015.4 0.0
14/03:30am SW 1 4 - - - - 10 - - 12.4 1015.6 0.0
14/03:00am SW 3 5 - - - - 10 - - 12.7 1015.6 0.0
14/02:30am WSW 1 3 - - - - 10 - - 13.0 1015.7 0.0
14/02:00am WSW 4 5 - - - - 10 - - 12.5 1015.6 0.0
14/01:30am CALM 0 0 - - - - 8 - - 12.7 1015.8 0.0
14/01:00am WSW 3 5 - - - - 10 - - 13.7 1016.1 0.0
14/12:30am WSW 3 5 - - - - 10 - - 13.7 1016.4 0.0
14/12:00am NW 4 6 - - - - 10 - - 14.0 1016.3 0.0
 
Date/Time
EST
Wind Sea
Height
m
Swell Vis
km
Cloud Weather Temp
°C
Press
hPa
Rain since
9am
mm
Dir  Spd
kts
Gust
kts
Height
m
Period
s
Dir
13/11:30pm WSW 4 5 - - - - 10 - - 14.8 1016.1 0.0
13/11:00pm W 4 6 - - - - 10 - - 15.0 1016.1 0.0
13/10:30pm NNW 4 5 - - - - 10 - - 16.1 1016.3 0.0
13/10:00pm NW 4 7 - - - - 10 - - 16.1 1016.1 0.0
13/09:30pm CALM 0 2 - - - - 10 - - 16.9 1016.0 0.0
13/09:00pm NNW 3 5 - - - - 10 - - 16.9 1015.9 0.0
13/08:30pm WNW 4 5 - - - - 10 - - 18.6 1015.8 0.0
13/08:00pm NW 9 13 - - - - 10 - - 19.1 1015.4 0.0
13/07:30pm WNW 5 8 - - - - 10 Partly cloudy - 18.9 1015.2 0.0
13/07:00pm NW 3 5 - - - - 10 - - 18.9 1014.8 0.0
13/06:30pm NNW 9 13 - - - - 10 Partly cloudy - 19.8 1014.3 0.0
13/06:00pm NW 8 11 - - - - 10 - - 19.9 1013.9 0.0
13/05:30pm NW 7 12 - - - - 10 - - 20.3 1013.4 0.0
13/05:00pm N 11 14 - - - - 10 - - 20.8 1013.1 0.0
13/04:30pm N 14 17 - - - - 10 Partly cloudy - 21.5 1012.8 0.0
13/04:00pm N 14 18 - - - - 10 - - 22.1 1012.6 0.0
13/03:30pm N 13 17 - - - - 10 - - 22.8 1012.6 0.0
13/03:00pm N 13 17 - - - - 10 - - 23.0 1012.7 0.0
13/02:30pm N 15 20 - - - - 10 - - 22.9 1012.5 0.0
13/02:00pm N 17 19 - - - - - - - 22.5 1012.6 0.0
13/01:30pm NNE 16 21 - - - - - - - 22.2 1012.8 0.0
13/01:00pm N 14 17 - - - - - - - 24.3 1013.2 0.0
13/12:30pm N 14 19 - - - - - - - 24.1 1013.6 0.0
13/12:00pm NNW 11 16 - - - - - - - 24.6 1014.1 0.0
13/11:30am NW 10 16 - - - - - - - 24.4 1014.5 0.0
13/11:00am NW 11 15 - - - - - - - 23.4 1015.1 0.0
13/10:30am NNW 10 14 - - - - - - - 23.0 1015.5 0.0
13/10:00am NNW 16 21 - - - - - - - 22.1 1015.8 0.0
13/09:30am NNW 12 20 - - - - - - - 21.9 1016.2 0.0
13/09:00am NNW 13 18 - - - - - - - 20.8 1016.4 -
13/08:30am NNW 10 13 - - - - - - - 19.6 1016.5 -
13/08:00am NNW 8 12 - - - - - Partly cloudy - 17.6 1016.3 -
13/07:30am NW 1 4 - - - - - Partly cloudy - 17.9 1016.0 -
13/07:00am NW 6 11 - - - - - Cloudy - 16.4 1016.0 -
13/06:30am NW 6 9 - - - - - Cloudy - 15.6 1015.8 -
13/06:00am N 5 7 - - - - - Partly cloudy - 15.4 1015.7 -
13/05:30am NNW 7 10 - - - - - Partly cloudy - 15.5 1015.4 -
13/05:00am NNW 9 13 - - - - - Partly cloudy - 16.1 1015.4 -
13/04:30am NNW 8 12 - - - - - Partly cloudy - 16.3 1015.1 -
13/04:00am NW 8 11 - - - - - Cloudy - 16.4 1015.2 -
13/03:30am NNW 8 11 - - - - - Partly cloudy - 16.3 1015.5 -
13/03:00am NNW 8 11 - - - - - Partly cloudy - 16.4 1015.5 0.0
13/02:30am NNW 6 8 - - - - - Partly cloudy - 16.4 1015.6 -
13/02:00am NNW 7 9 - - - - - Partly cloudy - 16.8 1015.8 -
13/01:30am NNW 3 6 - - - - - Partly cloudy - 16.4 1016.2 -
13/01:00am NW 5 6 - - - - - Partly cloudy - 16.4 1016.3 -
13/12:30am NW 7 9 - - - - - Cloudy - 16.7 1016.5 -
13/12:00am NW 6 8 - - - - - Mostly cloudy - 16.4 1016.4 -
 
Date/Time
EST
Wind Sea
Height
m
Swell Vis
km
Cloud Weather Temp
°C
Press
hPa
Rain since
9am
mm
Dir  Spd
kts
Gust
kts
Height
m
Period
s
Dir
12/11:30pm NW 6 7 - - - - - Partly cloudy - 16.2 1016.8 -
12/11:00pm NW 4 6 - - - - - Partly cloudy - 16.0 1017.0 -
12/10:30pm WNW 6 8 - - - - - Partly cloudy - 15.8 1017.2 -
12/10:00pm NW 1 6 - - - - - - - 15.1 1017.2 -
12/09:30pm NW 2 3 - - - - - - - 15.8 1017.0 -
12/09:00pm WNW 5 6 - - - - - - - 16.0 1017.6 0.0
12/08:30pm WNW 5 8 - - - - - - - 16.7 1017.4 -
12/08:00pm WNW 6 8 - - - - - Partly cloudy - 17.1 1017.3 -
12/07:30pm NNW 11 16 - - - - - Partly cloudy - 18.7 1017.2 -
12/07:00pm NNW 9 11 - - - - - Partly cloudy - 18.5 1016.8 -
12/06:30pm N 14 19 - - - - - - - 18.9 1015.7 -
12/06:00pm N 13 17 - - - - - - - 18.9 1015.9 -
12/05:30pm N 13 16 - - - - - - - 18.9 1015.9 -
12/05:00pm N 14 18 - - - - - - - 19.1 1015.7 -
12/04:30pm N 14 17 - - - - - - - 19.8 1015.8 -
12/04:00pm N 13 17 - - - - - - - 20.2 1015.6 -
12/03:30pm N 13 15 - - - - - - - 20.5 1015.6 -
12/03:00pm N 14 17 - - - - - - - 20.5 1015.8 -
12/02:30pm N 15 17 - - - - - - - 20.5 1016.0 -
12/02:00pm N 13 17 - - - - - - - 20.8 1016.3 -
12/01:30pm NNE 13 16 - - - - - - - 20.7 1016.6 -
12/01:00pm NNE 12 16 - - - - - - - 20.7 1017.1 -
12/12:30pm NNE 12 15 - - - - - - - 20.3 1017.6 -
12/12:00pm - - - - - - - - - - 20.0 1018.5 -
12/10:30am N 9 11 - - - - 10 Partly cloudy - 19.6 1019.9 0.0
12/10:00am N 10 13 - - - - 10 - - 19.4 1020.4 0.0
12/09:30am N 11 12 - - - - 10 Partly cloudy - 18.2 1020.5 0.0
12/09:00am CALM 0 4 - - - - 10 - - 19.0 1020.6 0.0
12/08:30am CALM 0 0 - - - - 10 Partly cloudy - 16.3 1020.4 0.0
12/08:00am SSW 1 4 - - - - 10 Partly cloudy - 14.7 1020.4 0.0
12/07:30am SSW 2 5 - - - - 10 - - 12.8 1020.0 0.0
12/07:00am CALM 0 0 - - - - 10 - - 11.3 1019.6 0.0
12/06:30am SSW 1 4 - - - - 10 - - 11.3 1019.3 0.0
12/06:00am SSW 2 4 - - - - 10 Cloudy - 11.7 1018.9 0.0
12/05:30am SSW 2 4 - - - - 10 - - 11.8 1018.4 0.0
12/05:00am SW 3 4 - - - - 10 - - 11.9 1018.4 0.0
12/04:30am SSW 1 3 - - - - 10 - - 11.6 1018.1 0.0
12/04:00am SSW 2 3 - - - - 10 - - 11.9 1018.3 0.0
12/03:30am CALM 0 0 - - - - 10 Partly cloudy - 11.8 1018.7 0.0
12/03:00am SSW 3 4 - - - - 10 Cloudy - 12.1 1018.6 0.0
12/02:30am CALM 0 0 - - - - 10 - - 11.3 1018.7 0.0
12/02:00am SSW 3 4 - - - - 10 - - 11.7 1018.4 0.0
12/01:30am SW 3 4 - - - - 10 - - 12.5 1018.9 0.0
12/01:00am WSW 6 7 - - - - 10 - - 13.9 1018.9 0.0
12/12:30am SW 4 5 - - - - 10 - - 12.7 1018.5 0.0
12/12:00am SW 3 4 - - - - 10 - - 13.8 1018.7 0.0
 
Date/Time
EST
Wind Sea
Height
m
Swell Vis
km
Cloud Weather Temp
°C
Press
hPa
Rain since
9am
mm
Dir  Spd
kts
Gust
kts
Height
m
Period
s
Dir
11/11:30pm SW 4 4 - - - - 10 Partly cloudy - 14.1 1018.8 0.0
11/11:00pm SW 3 4 - - - - 10 Cloudy - 14.5 1019.0 0.0
11/10:30pm SW 5 6 - - - - 10 Cloudy - 14.5 1019.1 0.0
11/10:00pm SW 5 6 - - - - 10 Partly cloudy - 14.8 1019.1 0.0
11/09:30pm SW 6 9 - - - - 10 - - 15.5 1019.1 0.0
11/09:00pm SSW 5 7 - - - - 10 - - 15.1 1019.0 0.0
11/08:30pm SSW 6 8 - - - - 10 - - 15.4 1019.1 0.0
11/08:00pm SSW 6 9 - - - - 10 - - 15.3 1018.9 0.0
11/07:30pm S 7 11 - - - - 10 - - 15.7 1018.9 0.0
11/07:00pm S 6 8 - - - - 10 - - 15.6 1018.5 0.0
11/06:30pm SSE 7 8 - - - - 10 - - 15.5 1018.3 0.0
11/06:00pm S 7 9 - - - - 10 - - 16.2 1018.0 0.0
11/05:30pm SSE 8 10 - - - - 10 - - 16.7 1017.6 0.0
11/05:00pm SSE 11 17 - - - - 10 - - 17.7 1017.2 0.0
11/04:30pm S 9 13 - - - - 10 - - 19.0 1016.9 0.0
11/04:00pm SSE 11 16 - - - - 10 Partly cloudy - 18.8 1016.7 0.0
11/03:30pm S 9 13 - - - - 10 Partly cloudy - 20.6 1016.2 0.0
11/03:00pm S 9 13 - - - - 10 - - 20.8 1016.3 0.0
11/02:30pm S 10 15 - - - - 10 Partly cloudy - 20.9 1016.5 0.0
11/02:00pm S 9 14 - - - - 10 Partly cloudy - 21.3 1016.7 0.0
11/01:30pm S 11 16 - - - - 10 Partly cloudy - 21.0 1016.7 0.0
11/01:00pm S 12 19 - - - - 10 Partly cloudy - 20.5 1016.7 0.0
11/12:30pm S 12 19 - - - - 10 - - 20.7 1017.0 0.0
11/12:00pm SSE 14 19 - - - - 10 - - 21.1 1017.3 0.0
11/11:30am S 15 21 - - - - 10 Partly cloudy - 20.4 1017.8 0.0
11/11:00am SSW 13 19 - - - - 10 Partly cloudy - 19.8 1018.1 0.0
11/10:30am S 14 23 - - - - 10 Partly cloudy - 19.1 1018.1 0.0

Other formats

Comma delimited format used in spreadsheet applications
http://www.bom.gov.au/fwo/IDN60701/IDN60701.94592.axf

JavaScript Object Notation format (JSON) in row-major order
http://www.bom.gov.au/fwo/IDN60701/IDN60701.94592.json

Data quality

Most of these data are generated automatically and are frequently updated. Quality checks on data are not normally performed. It is possible for incorrect values to appear. Refer to information at About Latest Weather Observations and please check the disclaimer before using these data.